Flight Track Log - Related Links

Times and Time Zones

All times are in EDT time to prevent confusion due to time zone crossing. See the SWA1787 flight status page for this flight to view local times or setup timezone preferences in your user account.

Time Position Orientation Groundspeed Altitude Reporting Facility
EDT Latitude Longitude Course Direction KTS MPH feet Rate Location/Type
Sat 04:22:26 PM 41.7042 -71.4447 263° West 158 182 700  Level Boston Center
Sat 04:23:39 PM 41.6964 -71.5253 263° West 197 227 3,900 2,863 Climbing Boston Center
Sat 04:24:59 PM 41.7408 -71.6194 302° West 244 281 8,000 2,914 Climbing Boston Center
Sat 04:25:59 PM 41.8019 -71.6853 321° Northwest 265 305 10,700 2,550 Climbing Boston Center
Sat 04:26:59 PM 41.8794 -71.7653 322° Northwest 431 496 13,100 2,600 Climbing Boston Center
Sat 04:27:59 PM 41.9528 -71.8622 316° Northwest 383 441 15,900 2,700 Climbing Boston Center
Sat 04:28:59 PM 41.9514 -72.0019 269° West 341 392 18,500 2,550 Climbing Boston Center
Sat 04:29:59 PM 41.9186 -72.1136 249° West 348 400 21,000 2,350 Climbing Boston Center
Sat 04:30:59 PM 41.8667 -72.2339 240° Southwest 353 406 23,200 2,050 Climbing Boston Center
Sat 04:31:59 PM 41.8128 -72.3622 241° Southwest 374 430 25,100 2,250 Climbing Boston Center
Sat 04:32:59 PM 41.7544 -72.4903 239° Southwest 397 457 27,700 2,800 Climbing Boston Center
Sat 04:33:59 PM 41.7022 -72.6125 240° Southwest 397 457 30,700 2,700 Climbing Boston Center
Sat 04:34:59 PM 41.6561 -72.7208 240° Southwest 373 429 33,100 1,850 Climbing Boston Center
Sat 04:35:59 PM 41.6056 -72.8372 240° Southwest 363 418 34,400 1,300 Climbing Boston Center
Sat 04:36:59 PM 41.5572 -72.9506 240° Southwest 355 409 35,700 1,000 Climbing Boston Center
Sat 04:38:11 PM 41.4983 -73.0914 241° Southwest 355 409 36,600 773 Climbing Boston Center
Sat 04:39:11 PM 41.4453 -73.2128 240° Southwest 355 409 37,400 480 Climbing Boston Center
Sat 04:41:06 PM 41.3503 -73.4300 240° Southwest 374 430 38,000 203 Climbing New York Center
Sat 04:42:08 PM 41.2956 -73.5519 239° Southwest 379 436 38,000  Level New York Center
Sat 04:43:06 PM 41.2325 -73.6653 234° Southwest 379 436 38,000  Level New York Center
Sat 04:44:07 PM 41.1692 -73.7783 233° Southwest 384 442 38,000  Level New York Center
Sat 04:45:05 PM 41.1017 -73.8881 231° Southwest 389 448 38,000  Level New York Center
Sat 04:46:06 PM 41.0364 -73.9978 232° Southwest 389 448 38,000  Level New York Center
Sat 04:47:06 PM 40.9728 -74.1075 233° Southwest 384 442 38,000  Level New York Center
Sat 04:48:07 PM 40.9053 -74.2111 229° Southwest 384 442 38,000  Level New York Center
Sat 04:49:08 PM 40.8397 -74.3175 231° Southwest 384 442 38,000  Level New York Center
Sat 04:50:07 PM 40.7758 -74.4267 232° Southwest 384 442 38,000  Level New York Center
Sat 04:51:07 PM 40.7122 -74.5272 230° Southwest 384 442 38,000  Level New York Center
Sat 04:52:07 PM 40.6503 -74.6361 233° Southwest 384 442 38,000  Level New York Center
Sat 04:53:06 PM 40.5844 -74.7389 230° Southwest 379 436 38,000  Level New York Center
Sat 04:54:06 PM 40.5164 -74.8386 228° Southwest 379 436 38,000  Level New York Center
Sat 04:55:05 PM 40.4464 -74.9356 227° Southwest 374 430 38,000  Level New York Center
Sat 04:56:07 PM 40.3783 -75.0347 228° Southwest 374 430 38,000  Level New York Center
Sat 04:57:07 PM 40.3100 -75.1314 227° Southwest 369 425 38,000  Level New York Center
Sat 04:58:05 PM 40.2419 -75.2278 227° Southwest 369 425 38,000  Level New York Center
Sat 04:59:05 PM 40.1714 -75.3264 227° Southwest 374 430 38,000  Level New York Center
Sat 05:00:06 PM 40.1011 -75.4222 226° Southwest 374 430 38,000  Level New York Center
Sat 05:01:06 PM 40.0303 -75.5231 227° Southwest 374 430 38,000  Level New York Center
Sat 05:02:07 PM 39.9597 -75.6186 226° Southwest 374 430 38,000  Level New York Center
Sat 05:03:07 PM 39.8931 -75.7167 228° Southwest 374 430 38,000  Level New York Center
Sat 05:04:06 PM 39.8214 -75.8361 232° Southwest 379 436 38,000  Level New York Center
Sat 05:05:07 PM 39.7586 -75.9369 231° Southwest 379 436 38,000  Level New York Center
Sat 05:06:08 PM 39.6956 -76.0375 231° Southwest 374 430 38,000  Level New York Center
Sat 05:07:06 PM 39.6244 -76.1372 227° Southwest 374 430 38,000  Level New York Center
Sat 05:08:06 PM 39.5639 -76.2297 230° Southwest 374 430 38,000  Level New York Center
Sat 05:08:22 PM 39.5431 -76.2669 234° Southwest 373 429 38,000  Level Washington Center
Sat 05:09:23 PM 39.4778 -76.3686 230° Southwest 378 435 38,000  Level Washington Center
Sat 05:10:21 PM 39.4125 -76.4700 230° Southwest 372 428 38,000  Level Washington Center
Sat 05:11:23 PM 39.3514 -76.5578 228° Southwest 372 428 38,000  Level Washington Center
Sat 05:12:23 PM 39.2881 -76.6589 231° Southwest 372 428 38,000  Level Washington Center
Sat 05:13:21 PM 39.2244 -76.7597 231° Southwest 372 428 38,000 50 Level Washington Center
Sat 05:14:22 PM 39.1589 -76.8578 229° Southwest 372 428 38,100 443 Climbing Washington Center
Sat 05:15:23 PM 39.0975 -76.9583 232° Southwest 372 428 38,900 744 Climbing Washington Center
Sat 05:16:23 PM 39.0294 -77.0558 228° Southwest 372 428 39,600 555 Climbing Washington Center
Sat 05:17:22 PM 38.9492 -77.1425 220° Southwest 372 428 40,000 202 Climbing Washington Center
Sat 05:18:22 PM 38.8689 -77.2286 220° Southwest 377 434 40,000  Level Washington Center
Sat 05:19:21 PM 38.7864 -77.3175 220° Southwest 383 441 40,000  Level Washington Center
Sat 05:20:22 PM 38.7081 -77.4033 221° Southwest 383 441 40,000  Level Washington Center
Sat 05:21:23 PM 38.6275 -77.4892 220° Southwest 383 441 40,000  Level Washington Center
Sat 05:22:21 PM 38.5508 -77.5747 221° Southwest 383 441 40,000  Level Washington Center
Sat 05:23:21 PM 38.4725 -77.6603 221° Southwest 378 435 40,000  Level Washington Center
Sat 05:24:23 PM 38.3958 -77.7456 221° Southwest 378 435 40,000  Level Washington Center
Sat 05:25:23 PM 38.3108 -77.8356 220° Southwest 373 429 40,000  Level Washington Center
Sat 05:26:21 PM 38.2342 -77.9206 221° Southwest 373 429 40,000  Level Washington Center
Sat 05:27:22 PM 38.1553 -78.0025 219° Southwest 373 429 40,000  Level Washington Center
Sat 05:28:23 PM 38.0786 -78.0872 221° Southwest 373 429 40,000  Level Washington Center
Sat 05:29:23 PM 38.0039 -78.1639 219° Southwest 367 422 40,000  Level Washington Center
Sat 05:30:23 PM 37.9336 -78.2325 218° Southwest 360 414 40,000  Level Washington Center
Sat 05:31:21 PM 37.8506 -78.3111 217° Southwest 365 420 40,000  Level Washington Center
Sat 05:32:21 PM 37.7694 -78.3897 217° Southwest 370 426 40,000  Level Washington Center
Sat 05:33:22 PM 37.6883 -78.4653 216° Southwest 375 432 40,000  Level Washington Center
Sat 05:34:23 PM 37.5986 -78.5511 217° Southwest 375 432 40,000  Level Washington Center
Sat 05:35:23 PM 37.5175 -78.6264 216° Southwest 375 432 40,000  Level Washington Center
Sat 05:36:23 PM 37.4364 -78.7017 216° Southwest 375 432 40,000  Level Washington Center
Sat 05:37:21 PM 37.3531 -78.7767 216° Southwest 375 432 40,000  Level Washington Center
Sat 05:38:22 PM 37.2803 -78.8467 217° Southwest 375 432 40,000  Level Washington Center
Sat 05:39:23 PM 37.1989 -78.9214 216° Southwest 375 432 40,000  Level Washington Center
Sat 05:40:23 PM 37.1133 -78.9986 216° Southwest 375 432 40,000  Level Washington Center
Sat 05:41:22 PM 37.0317 -79.0756 217° Southwest 375 432 40,000  Level Washington Center
Sat 05:42:23 PM 36.9503 -79.1500 216° Southwest 375 432 40,000  Level Washington Center
Sat 05:43:21 PM 36.8603 -79.2339 217° Southwest 375 432 40,000  Level Washington Center
Sat 05:44:22 PM 36.7786 -79.3106 217° Southwest 375 432 40,000  Level Washington Center
Sat 05:46:08 PM 36.6292 -79.4419 215° Southwest 367 422 40,000  Level Atlanta Center
Sat 05:47:08 PM 36.5486 -79.5189 218° Southwest 367 422 40,000  Level Atlanta Center
Sat 05:48:08 PM 36.4719 -79.5878 216° Southwest 367 422 40,000  Level Atlanta Center
Sat 05:49:08 PM 36.3889 -79.6594 215° Southwest 367 422 40,000  Level Atlanta Center
Sat 05:50:08 PM 36.3061 -79.7361 217° Southwest 367 422 40,000  Level Atlanta Center
Sat 05:51:08 PM 36.2153 -79.8208 217° Southwest 367 422 40,000  Level Atlanta Center
Sat 05:52:08 PM 36.1342 -79.8919 215° Southwest 367 422 40,000  Level Atlanta Center
Sat 05:53:08 PM 36.0492 -79.9681 216° Southwest 373 429 40,000  Level Atlanta Center
Sat 05:54:08 PM 35.9550 -80.0192 204° Southwest 368 423 40,000  Level Atlanta Center
Sat 05:55:08 PM 35.8667 -80.0644 203° Southwest 376 433 40,000  Level Atlanta Center
Sat 05:56:08 PM 35.7681 -80.1128 202° Southwest 376 433 40,000  Level Atlanta Center
Sat 05:57:08 PM 35.6717 -80.1608 202° Southwest 381 438 40,000  Level Atlanta Center
Sat 05:58:08 PM 35.5731 -80.2139 204° Southwest 386 444 40,000  Level Atlanta Center
Sat 05:59:08 PM 35.4725 -80.2619 201° Southwest 392 451 40,000  Level Atlanta Center
Sat 06:00:08 PM 35.3656 -80.3178 203° Southwest 392 451 40,000  Level Atlanta Center
Sat 06:01:58 PM 35.1844 -80.4089 202° Southwest 394 453 40,000  Level Jacksonville Center
Sat 06:02:58 PM 35.0875 -80.4547 201° Southwest 388 447 40,000  Level Jacksonville Center
Sat 06:03:58 PM 34.9903 -80.5006 201° Southwest 388 447 40,000  Level Jacksonville Center
Sat 06:04:58 PM 34.8911 -80.5514 203° Southwest 388 447 40,000  Level Jacksonville Center
Sat 06:05:58 PM 34.7939 -80.5997 202° Southwest 388 447 40,000  Level Jacksonville Center
Sat 06:06:57 PM 34.7133 -80.6422 203° Southwest 383 441 40,000  Level Jacksonville Center
Sat 06:07:58 PM 34.6161 -80.6903 202° Southwest 378 435 40,000  Level Jacksonville Center
Sat 06:08:58 PM 34.5214 -80.7556 210° Southwest 388 447 40,000  Level Jacksonville Center
Sat 06:09:57 PM 34.4394 -80.8381 220° Southwest 383 441 40,000  Level Jacksonville Center
Sat 06:10:58 PM 34.3592 -80.9081 216° Southwest 374 430 40,000  Level Jacksonville Center
Sat 06:11:58 PM 34.2872 -80.9850 221° Southwest 374 430 40,000  Level Jacksonville Center
Sat 06:12:58 PM 34.1925 -81.0725 217° Southwest 366 421 40,000  Level Jacksonville Center
Sat 06:15:20 PM 34.0025 -81.2475 217° Southwest 372 428 40,000  Level Atlanta Center
Sat 06:16:20 PM 33.9231 -81.3275 220° Southwest 377 434 40,000  Level Atlanta Center
Sat 06:17:20 PM 33.8392 -81.4053 218° Southwest 383 441 40,000  Level Atlanta Center
Sat 06:18:20 PM 33.7572 -81.4828 218° Southwest 383 441 40,000  Level Atlanta Center
Sat 06:19:20 PM 33.6772 -81.5575 218° Southwest 383 441 40,000  Level Atlanta Center
Sat 06:20:20 PM 33.5994 -81.6319 219° Southwest 378 435 40,000  Level Atlanta Center
Sat 06:21:20 PM 33.5194 -81.7092 219° Southwest 373 429 40,000  Level Atlanta Center
Sat 06:22:20 PM 33.4394 -81.7808 217° Southwest 368 423 40,000  Level Atlanta Center
Sat 06:23:20 PM 33.3614 -81.8525 217° Southwest 363 418 40,000  Level Atlanta Center
Sat 06:24:20 PM 33.2836 -81.9292 219° Southwest 363 418 40,000  Level Atlanta Center
Sat 06:25:20 PM 33.2053 -82.0006 217° Southwest 363 418 40,000  Level Atlanta Center
Sat 06:26:20 PM 33.1253 -82.0744 218° Southwest 363 418 40,000  Level Atlanta Center
Sat 06:27:20 PM 33.0469 -82.1456 217° Southwest 363 418 40,000  Level Atlanta Center
Sat 06:28:20 PM 32.9647 -82.2217 218° Southwest 363 418 40,000  Level Atlanta Center
Sat 06:29:20 PM 32.8844 -82.2950 218° Southwest 363 418 40,000  Level Atlanta Center
Sat 06:30:20 PM 32.7958 -82.3808 219° Southwest 368 423 40,000  Level Atlanta Center
Sat 06:31:20 PM 32.7133 -82.4564 218° Southwest 368 423 40,000  Level Atlanta Center
Sat 06:32:20 PM 32.6328 -82.5294 217° Southwest 368 423 40,000  Level Atlanta Center
Sat 06:33:20 PM 32.5542 -82.5997 217° Southwest 368 423 40,000  Level Atlanta Center
Sat 06:34:20 PM 32.4800 -82.6697 219° Southwest 368 423 40,000  Level Atlanta Center
Sat 06:35:20 PM 32.3994 -82.7425 217° Southwest 368 423 40,000  Level Atlanta Center
Sat 06:36:20 PM 32.3167 -82.8172 217° Southwest 368 423 40,000  Level Atlanta Center
Sat 06:37:20 PM 32.2358 -82.8897 217° Southwest 373 429 40,000  Level Atlanta Center
Sat 06:38:20 PM 32.1553 -82.9667 219° Southwest 373 429 40,000  Level Atlanta Center
Sat 06:39:20 PM 32.0722 -83.0389 216° Southwest 373 429 40,000  Level Atlanta Center
Sat 06:40:20 PM 31.9914 -83.1108 217° Southwest 378 435 40,000  Level Atlanta Center
Sat 06:41:09 PM 31.9136 -83.1764 216° Southwest 375 432 40,000  Level Jacksonville Center
Sat 06:42:09 PM 31.8300 -83.2544 218° Southwest 386 444 40,000  Level Jacksonville Center
Sat 06:43:09 PM 31.7567 -83.3178 216° Southwest 386 444 40,000  Level Jacksonville Center
Sat 06:44:09 PM 31.6750 -83.3906 217° Southwest 386 444 40,000  Level Jacksonville Center
Sat 06:45:09 PM 31.5911 -83.4633 216° Southwest 386 444 40,000  Level Jacksonville Center
Sat 06:46:10 PM 31.5094 -83.5358 217° Southwest 386 444 40,000  Level Jacksonville Center
Sat 06:47:09 PM 31.4069 -83.5692 196° South 371 427 40,000  Level Jacksonville Center
Sat 06:48:09 PM 31.3044 -83.5928 191° South 376 433 40,000  Level Jacksonville Center
Sat 06:49:09 PM 31.1978 -83.6139 190° South 381 438 40,000 -250 Level Jacksonville Center
Sat 06:50:09 PM 31.0911 -83.6375 191° South 387 445 39,500 -700 Descending Jacksonville Center
Sat 06:51:09 PM 30.9867 -83.6583 190° South 392 451 38,600 -950 Descending Jacksonville Center
Sat 06:52:09 PM 30.8758 -83.6792 189° South 392 451 37,600 -950 Descending Jacksonville Center
Sat 06:53:09 PM 30.7650 -83.7050 191° South 397 457 36,700 -950 Descending Jacksonville Center
Sat 06:54:09 PM 30.6522 -83.7256 189° South 402 463 35,700 -900 Descending Jacksonville Center
Sat 06:55:09 PM 30.5475 -83.7489 191° South 407 468 34,900 -350 Descending Jacksonville Center
Sat 06:56:09 PM 30.4347 -83.7719 190° South 407 468 35,000 50 Climbing Jacksonville Center
Sat 06:57:09 PM 30.3258 -83.7950 190° South 407 468 35,000  Level Jacksonville Center
Sat 06:58:09 PM 30.2153 -83.8156 189° South 412 474 35,000  Level Jacksonville Center
Sat 06:59:09 PM 30.1064 -83.8411 191° South 412 474 35,000  Level Jacksonville Center
Sat 07:00:09 PM 29.9939 -83.8206 171° South 405 466 35,000  Level Jacksonville Center
Sat 07:01:09 PM 29.8836 -83.7742 160° South 405 466 35,000  Level Jacksonville Center
Sat 07:02:09 PM 29.7731 -83.7325 162° South 411 473 35,000  Level Jacksonville Center
Sat 07:03:09 PM 29.6647 -83.6886 161° South 416 479 35,000 -950 Level Jacksonville Center
Sat 07:04:09 PM 29.5442 -83.6397 161° South 424 488 33,100 -2,000 Descending Jacksonville Center
Sat 07:05:09 PM 29.4400 -83.5983 161° South 414 476 31,000 -2,000 Descending Jacksonville Center
Sat 07:06:09 PM 29.3358 -83.5572 161° South 404 465 29,100 -1,950 Descending Jacksonville Center
Sat 07:07:09 PM 29.2400 -83.5183 161° South 388 447 27,100 -1,050 Descending Jacksonville Center
Sat 07:08:09 PM 29.1464 -83.4631 153° Southeast 377 434 27,000 -550 Descending Jacksonville Center
Sat 07:09:09 PM 29.0567 -83.4056 151° Southeast 371 427 26,000 -1,300 Descending Jacksonville Center
Sat 07:10:09 PM 28.9692 -83.3483 150° Southeast 366 421 24,400 -1,700 Descending Jacksonville Center
Sat 07:11:09 PM 28.8819 -83.2956 152° Southeast 366 421 22,600 -1,750 Descending Jacksonville Center
Sat 07:12:09 PM 28.7983 -83.2433 151° Southeast 361 415 20,900 -1,750 Descending Jacksonville Center
Sat 07:13:09 PM 28.7172 -83.1908 150° Southeast 348 400 19,100 -1,701 Descending Jacksonville Center
Sat 07:15:16 PM 28.5500 -83.0833 151° Southeast 328 377 15,600 -1,701 Descending Tampa TRACON
Sat 07:16:16 PM 28.4667 -83.0500 161° South 321 369 13,800 -1,587 Descending Tampa TRACON
Sat 07:17:17 PM 28.4000 -82.9833 139° Southeast 308 354 12,400 -1,537 Descending Tampa TRACON
Sat 07:18:17 PM 28.3333 -82.9333 147° Southeast 302 348 10,700 -1,650 Descending Tampa TRACON
Sat 07:19:17 PM 28.2667 -82.8833 147° Southeast 301 346 9,100 -1,600 Descending Tampa TRACON
Sat 07:20:17 PM 28.2167 -82.8000 124° Southeast 294 338 7,500 -1,500 Descending Tampa TRACON
Sat 07:21:17 PM 28.1833 -82.7167 114° Southeast 272 313 6,100 -1,684 Descending Tampa TRACON
Sat 07:22:11 PM 28.1667 -82.6500 106° East 273 314 4,300 -1,895 Descending Tampa TRACON
Sat 07:23:11 PM 28.1667 -82.5667 90° East 250 288 2,500 -1,800 Descending Tampa TRACON

Login

Don't have an account? Register now (free) for customized features, flight alerts, and more!